createdAt,value
2022-10-30T00:02:09.373Z,77.60
2022-10-30T00:04:41.504Z,75.10
2022-10-30T00:07:13.219Z,70.20
2022-10-30T00:09:44.887Z,79.80
2022-10-30T00:12:16.842Z,72.80
2022-10-30T00:14:48.820Z,71.60
2022-10-30T00:17:20.537Z,80.60
2022-10-30T00:19:52.179Z,70.60
2022-10-30T00:22:23.918Z,75.40
2022-10-30T00:24:55.588Z,72.60
2022-10-30T00:27:27.493Z,70.60
2022-10-30T00:29:59.197Z,68.30
2022-10-30T00:32:31.459Z,69.90
2022-10-30T00:35:03.167Z,75.20
2022-10-30T00:37:37.091Z,79.40
2022-10-30T00:40:15.197Z,71.20
2022-10-30T00:42:47.093Z,65.80
2022-10-30T00:45:20.024Z,82.90
2022-10-30T00:47:57.098Z,70.50
2022-10-30T00:50:32.206Z,85.20
2022-10-30T00:53:08.449Z,75.90
2022-10-30T00:55:45.054Z,79.00
2022-10-30T00:58:20.466Z,73.80
2022-10-30T01:00:58.092Z,74.70
2022-10-30T01:03:31.723Z,68.20
2022-10-30T01:06:09.710Z,69.30
2022-10-30T01:08:42.245Z,67.40
2022-10-30T01:11:14.829Z,74.50
2022-10-30T01:13:51.130Z,67.80
2022-10-30T01:16:44.542Z,64.60
2022-10-30T01:19:27.707Z,68.50
2022-10-30T01:22:16.454Z,73.20
2022-10-30T01:25:01.224Z,73.20
2022-10-30T01:27:50.019Z,73.30
2022-10-30T01:30:36.261Z,76.00
2022-10-30T01:33:21.438Z,72.60
2022-10-30T01:36:00.138Z,76.70
2022-10-30T01:38:37.250Z,78.50
2022-10-30T01:41:08.983Z,85.10
2022-10-30T01:43:42.711Z,87.90
2022-10-30T01:46:32.401Z,84.60
2022-10-30T01:49:20.971Z,86.50
2022-10-30T01:52:06.565Z,83.20
2022-10-30T01:54:46.559Z,85.80
2022-10-30T01:57:30.327Z,86.80
2022-10-30T02:00:06.645Z,80.10
2022-10-30T02:02:45.764Z,82.80
2022-10-30T02:05:27.362Z,84.00
2022-10-30T02:07:59.593Z,82.90
2022-10-30T02:10:34.836Z,81.50
2022-10-30T02:13:07.405Z,90.40
2022-10-30T02:15:40.114Z,82.90
2022-10-30T02:18:13.123Z,73.10
2022-10-30T02:20:45.163Z,91.70
2022-10-30T02:23:20.580Z,75.80
2022-10-30T02:25:54.306Z,82.80
2022-10-30T02:28:26.455Z,81.10
2022-10-30T02:30:58.297Z,83.00
2022-10-30T02:33:30.176Z,84.80
2022-10-30T02:36:02.052Z,71.10
2022-10-30T02:38:33.708Z,75.50
2022-10-30T02:41:05.460Z,79.20
2022-10-30T02:43:38.218Z,80.80
2022-10-30T02:46:10.754Z,79.10
2022-10-30T02:48:42.585Z,81.40
2022-10-30T02:51:14.397Z,80.50
2022-10-30T02:53:47.435Z,91.20
2022-10-30T02:56:19.525Z,87.80
2022-10-30T02:58:51.283Z,75.40
2022-10-30T03:01:23.301Z,84.10
2022-10-30T03:03:57.805Z,82.50
2022-10-30T03:06:29.664Z,88.90
2022-10-30T03:09:03.206Z,88.50
2022-10-30T03:11:36.810Z,86.20
2022-10-30T03:14:09.253Z,81.30
2022-10-30T03:16:42.138Z,87.50
2022-10-30T03:19:13.949Z,84.90
2022-10-30T03:21:46.593Z,79.80
2022-10-30T03:24:18.948Z,87.30
2022-10-30T03:26:50.769Z,87.50
2022-10-30T03:29:22.647Z,84.80
2022-10-30T03:31:54.650Z,82.80
2022-10-30T03:34:28.389Z,80.00
2022-10-30T03:37:00.494Z,83.40
2022-10-30T03:39:32.952Z,82.90
2022-10-30T03:42:07.643Z,76.40
2022-10-30T03:44:39.677Z,79.50
2022-10-30T03:47:12.647Z,84.10
2022-10-30T03:49:46.197Z,81.80
2022-10-30T03:52:21.408Z,75.80
2022-10-30T03:54:53.752Z,82.20
2022-10-30T03:57:26.058Z,76.00
2022-10-30T04:00:13.901Z,77.00
2022-10-30T04:02:51.857Z,85.80
2022-10-30T04:05:25.113Z,77.20
2022-10-30T04:08:03.198Z,75.30
2022-10-30T04:10:37.266Z,77.40
2022-10-30T04:13:14.450Z,75.90
2022-10-30T04:15:56.182Z,81.10
2022-10-30T04:18:29.779Z,82.40
2022-10-30T04:21:03.223Z,73.10
2022-10-30T04:23:36.673Z,71.40
2022-10-30T04:26:08.922Z,78.70
2022-10-30T04:28:42.351Z,68.40
2022-10-30T04:31:14.014Z,66.30
2022-10-30T04:33:45.812Z,70.30
2022-10-30T04:36:19.006Z,70.00
2022-10-30T04:38:50.743Z,74.10
2022-10-30T04:41:24.229Z,70.90
2022-10-30T04:44:03.557Z,66.00
2022-10-30T04:46:36.706Z,73.30
2022-10-30T04:49:12.659Z,74.20
2022-10-30T04:51:46.418Z,73.20
2022-10-30T04:54:18.630Z,81.00
2022-10-30T04:56:50.514Z,65.20
2022-10-30T04:59:22.211Z,71.20
2022-10-30T05:01:56.109Z,77.10
2022-10-30T05:04:28.309Z,79.00
2022-10-30T05:07:02.387Z,75.80
2022-10-30T05:09:34.714Z,75.00
2022-10-30T05:12:07.534Z,74.30
2022-10-30T05:14:44.698Z,76.30
2022-10-30T05:17:16.536Z,76.40
2022-10-30T05:19:48.851Z,74.00
2022-10-30T05:22:21.060Z,72.00
2022-10-30T05:24:53.334Z,78.30
2022-10-30T05:27:25.352Z,70.70
2022-10-30T05:29:57.586Z,67.30
2022-10-30T05:32:29.894Z,48.50
2022-10-30T05:35:03.302Z,72.20
2022-10-30T05:37:35.377Z,72.30
2022-10-30T05:40:09.341Z,75.10
2022-10-30T05:42:45.675Z,65.30
2022-10-30T05:45:18.465Z,72.20
2022-10-30T05:47:59.514Z,68.20
2022-10-30T05:50:33.221Z,75.40
2022-10-30T05:53:27.489Z,71.60
2022-10-30T05:56:00.780Z,67.90
2022-10-30T05:58:36.177Z,70.00
2022-10-30T06:01:11.665Z,67.30
2022-10-30T06:03:46.286Z,66.40
2022-10-30T06:06:18.101Z,64.90
2022-10-30T06:08:50.076Z,73.00
2022-10-30T06:11:45.643Z,83.00
2022-10-30T06:14:18.312Z,78.70
2022-10-30T06:16:55.804Z,72.20
2022-10-30T06:19:33.633Z,74.30
2022-10-30T06:22:18.909Z,90.80
2022-10-30T06:24:54.266Z,78.10
2022-10-30T06:27:50.590Z,79.10
2022-10-30T06:30:23.315Z,81.20
2022-10-30T06:33:00.782Z,82.50
2022-10-30T06:35:33.596Z,72.20
2022-10-30T06:38:05.594Z,85.30
2022-10-30T06:40:38.910Z,87.80
2022-10-30T06:43:24.288Z,81.70
2022-10-30T06:46:04.353Z,82.90
2022-10-30T06:48:38.057Z,90.50
2022-10-30T06:51:10.228Z,83.50
2022-10-30T06:53:44.067Z,79.20
2022-10-30T06:56:34.346Z,80.90
2022-10-30T06:59:14.069Z,84.20
2022-10-30T07:02:07.118Z,56.50
2022-10-30T07:05:03.012Z,74.00
2022-10-30T07:07:35.439Z,78.10
2022-10-30T07:10:08.017Z,74.20
2022-10-30T07:13:12.186Z,76.50
2022-10-30T07:15:56.686Z,84.10
2022-10-30T07:18:30.267Z,78.50
2022-10-30T07:21:04.272Z,78.80
2022-10-30T07:23:36.706Z,77.50
2022-10-30T07:26:38.219Z,66.70
2022-10-30T07:29:29.005Z,74.40
2022-10-30T07:32:29.979Z,71.10
2022-10-30T07:35:36.499Z,68.80
2022-10-30T07:38:43.484Z,66.90
2022-10-30T07:41:30.044Z,61.20
2022-10-30T07:44:20.595Z,65.30
2022-10-30T07:47:12.262Z,68.80
2022-10-30T07:49:54.989Z,67.30
2022-10-30T07:52:31.995Z,59.90
2022-10-30T07:55:04.307Z,63.90
2022-10-30T07:57:48.301Z,68.10
2022-10-30T08:00:20.761Z,63.60
2022-10-30T08:03:00.149Z,62.00
2022-10-30T08:05:40.052Z,60.30
2022-10-30T08:08:18.090Z,66.70
2022-10-30T08:10:49.846Z,59.50
2022-10-30T08:13:22.162Z,63.50
2022-10-30T08:15:54.933Z,60.70
2022-10-30T08:18:27.080Z,57.70
2022-10-30T08:20:59.418Z,56.80
2022-10-30T08:23:31.501Z,66.50
2022-10-30T08:26:03.940Z,63.00
2022-10-30T08:28:37.664Z,63.20
2022-10-30T08:31:11.910Z,59.60
2022-10-30T08:34:07.369Z,56.50
2022-10-30T08:36:48.500Z,56.20
2022-10-30T08:39:22.019Z,58.50
2022-10-30T08:42:06.692Z,58.70
2022-10-30T08:44:43.791Z,61.40
2022-10-30T08:47:36.419Z,57.40
2022-10-30T08:50:09.035Z,58.80
2022-10-30T08:52:41.834Z,55.30
2022-10-30T08:55:13.758Z,57.60
2022-10-30T08:57:46.233Z,54.00
2022-10-30T09:00:18.393Z,42.90
2022-10-30T09:03:26.122Z,53.20
2022-10-30T09:06:32.777Z,64.70
2022-10-30T09:09:23.061Z,56.70
2022-10-30T09:11:57.990Z,54.60
2022-10-30T09:14:29.960Z,64.60
2022-10-30T09:17:02.112Z,54.10
2022-10-30T09:19:34.143Z,56.10
2022-10-30T09:22:06.284Z,60.10
2022-10-30T09:24:40.120Z,61.00
2022-10-30T09:27:41.684Z,60.30
2022-10-30T09:30:15.475Z,58.30
2022-10-30T09:32:57.741Z,51.10
2022-10-30T09:35:39.954Z,55.20
2022-10-30T09:38:11.817Z,52.60
2022-10-30T09:40:57.977Z,37.50
2022-10-30T09:43:44.810Z,49.90
2022-10-30T09:46:31.052Z,56.50
2022-10-30T09:49:28.048Z,71.20
2022-10-30T09:52:22.022Z,63.30
2022-10-30T09:55:06.532Z,53.60
2022-10-30T09:57:50.519Z,54.40
2022-10-30T10:00:24.516Z,53.10
2022-10-30T10:03:23.592Z,53.00
2022-10-30T10:06:20.008Z,54.00
2022-10-30T10:09:21.332Z,58.20
2022-10-30T10:12:20.747Z,56.80
2022-10-30T10:14:54.145Z,53.50
2022-10-30T10:17:34.676Z,56.20
2022-10-30T10:20:16.053Z,57.00
2022-10-30T10:22:51.285Z,55.30
2022-10-30T10:25:24.741Z,54.50
2022-10-30T10:28:07.613Z,51.40
2022-10-30T10:30:50.844Z,50.00
2022-10-30T10:33:52.468Z,55.70
2022-10-30T10:36:36.189Z,49.80
2022-10-30T10:39:27.262Z,49.50
2022-10-30T10:42:14.037Z,47.30
2022-10-30T10:44:57.701Z,47.20
2022-10-30T10:47:49.387Z,47.90
2022-10-30T10:50:27.177Z,46.40
2022-10-30T10:53:06.954Z,51.50
2022-10-30T10:55:42.555Z,48.40
2022-10-30T10:58:22.763Z,53.60
2022-10-30T11:00:57.984Z,56.90
2022-10-30T11:03:46.065Z,44.60
2022-10-30T11:06:25.687Z,50.00
2022-10-30T11:09:04.917Z,49.90
2022-10-30T11:11:37.230Z,47.20
2022-10-30T11:14:16.463Z,50.20
2022-10-30T11:17:03.340Z,47.20
2022-10-30T11:19:35.649Z,50.60
2022-10-30T11:22:20.205Z,55.60
2022-10-30T11:24:51.891Z,47.40
2022-10-30T11:27:30.697Z,46.30
2022-10-30T11:30:06.562Z,46.60
2022-10-30T11:32:38.396Z,48.40
2022-10-30T11:35:17.964Z,48.10
2022-10-30T11:37:51.943Z,44.90
2022-10-30T11:40:24.752Z,56.60
2022-10-30T11:43:02.557Z,43.60
2022-10-30T11:45:38.651Z,46.10
2022-10-30T11:48:21.560Z,51.30
2022-10-30T11:50:55.959Z,41.70
2022-10-30T11:53:34.869Z,48.40
2022-10-30T11:56:14.331Z,42.90
2022-10-30T11:58:50.817Z,41.30
2022-10-30T12:01:26.013Z,36.80
2022-10-30T12:04:13.609Z,52.90
2022-10-30T12:06:45.395Z,44.20
2022-10-30T12:09:21.698Z,51.00
2022-10-30T12:11:54.697Z,43.30
2022-10-30T12:14:29.871Z,40.00
2022-10-30T12:17:03.128Z,38.20
2022-10-30T12:19:36.304Z,38.70
2022-10-30T12:22:09.871Z,37.20
2022-10-30T12:24:46.033Z,53.50
2022-10-30T12:27:22.363Z,42.40
2022-10-30T12:30:08.835Z,43.00
2022-10-30T12:32:53.175Z,38.80
2022-10-30T12:35:37.171Z,36.10
2022-10-30T12:38:15.037Z,38.70
2022-10-30T12:41:04.187Z,36.00
2022-10-30T12:43:37.497Z,39.10
2022-10-30T12:46:26.634Z,30.30
2022-10-30T12:49:04.411Z,35.70
2022-10-30T12:51:41.725Z,32.60
2022-10-30T12:54:22.106Z,47.60
2022-10-30T12:57:02.333Z,36.20
2022-10-30T12:59:42.125Z,37.50
2022-10-30T13:02:30.262Z,37.00
2022-10-30T13:05:06.933Z,37.70
2022-10-30T13:07:45.276Z,36.10
2022-10-30T13:10:28.659Z,33.80
2022-10-30T13:13:06.383Z,42.90
2022-10-30T13:15:43.295Z,37.80
2022-10-30T13:18:19.627Z,41.90
2022-10-30T13:21:12.439Z,39.30
2022-10-30T13:26:30.115Z,38.30
2022-10-30T13:29:13.015Z,46.80
2022-10-30T13:31:54.289Z,39.80
2022-10-30T13:34:38.327Z,41.90
2022-10-30T13:37:16.688Z,33.90
2022-10-30T13:40:01.064Z,38.10
2022-10-30T13:42:48.912Z,35.80
2022-10-30T13:45:52.315Z,38.80
2022-10-30T13:48:45.021Z,39.30
2022-10-30T13:51:38.351Z,37.50
2022-10-30T13:54:18.520Z,43.90
2022-10-30T13:56:52.976Z,39.30
2022-10-30T13:59:38.741Z,40.20
2022-10-30T14:02:23.699Z,41.70
2022-10-30T14:05:04.726Z,40.40
2022-10-30T14:07:43.748Z,44.80
2022-10-30T14:10:23.579Z,41.90
2022-10-30T14:13:09.230Z,50.90
2022-10-30T14:15:46.625Z,58.70
2022-10-30T14:18:30.592Z,42.20
2022-10-30T14:21:33.849Z,58.00
2022-10-30T14:26:37.176Z,44.50
2022-10-30T14:29:37.628Z,43.20
2022-10-30T14:32:39.502Z,44.00
2022-10-30T14:35:33.740Z,42.80
2022-10-30T14:38:28.945Z,65.00
2022-10-30T14:41:43.727Z,44.80
2022-10-30T14:44:31.730Z,40.90
2022-10-30T14:47:35.179Z,47.10
2022-10-30T14:50:19.913Z,44.00
2022-10-30T14:53:11.164Z,41.40
2022-10-30T14:55:58.634Z,40.90
2022-10-30T14:58:33.162Z,46.00
2022-10-30T15:01:29.498Z,43.50
2022-10-30T15:04:13.927Z,39.70
2022-10-30T15:06:56.996Z,48.90
2022-10-30T15:09:41.910Z,47.90
2022-10-30T15:15:12.171Z,53.00
2022-10-30T15:17:47.726Z,44.60
2022-10-30T15:20:22.855Z,51.00
2022-10-30T15:22:58.723Z,55.60
2022-10-30T15:25:34.661Z,53.60
2022-10-30T15:28:07.756Z,45.30
2022-10-30T15:30:41.914Z,50.60
2022-10-30T15:33:24.485Z,45.50
2022-10-30T15:35:56.266Z,53.00
2022-10-30T15:38:28.305Z,42.20
2022-10-30T15:41:03.347Z,44.50
2022-10-30T15:43:38.676Z,44.90
2022-10-30T15:46:16.131Z,46.40
2022-10-30T15:48:49.896Z,45.70
2022-10-30T15:51:25.612Z,52.60
2022-10-30T15:53:59.637Z,55.80
2022-10-30T15:56:38.307Z,49.60
2022-10-30T15:59:24.073Z,59.60
2022-10-30T16:01:58.515Z,56.30
2022-10-30T16:04:36.363Z,51.70
2022-10-30T16:07:20.686Z,57.80
2022-10-30T16:09:57.941Z,57.70
2022-10-30T16:12:31.576Z,52.10
2022-10-30T16:15:08.158Z,50.30
2022-10-30T16:17:39.827Z,57.40
2022-10-30T16:20:13.037Z,66.10
2022-10-30T16:22:44.651Z,57.10
2022-10-30T16:25:18.545Z,61.10
2022-10-30T16:27:50.387Z,52.80
2022-10-30T16:30:23.448Z,59.50
2022-10-30T16:32:55.558Z,62.20
2022-10-30T16:35:28.193Z,61.50
2022-10-30T16:38:02.682Z,74.60
2022-10-30T16:40:34.787Z,54.10
2022-10-30T16:43:24.832Z,73.40
2022-10-30T16:45:58.269Z,62.50
2022-10-30T16:48:35.726Z,67.50
2022-10-30T16:51:07.663Z,67.30
2022-10-30T16:53:39.308Z,65.80
2022-10-30T16:56:20.525Z,63.40
2022-10-30T16:58:53.082Z,79.40
2022-10-30T17:01:29.121Z,72.80
2022-10-30T17:04:01.616Z,69.50
2022-10-30T17:06:40.916Z,62.70
2022-10-30T17:09:21.165Z,62.10
2022-10-30T17:12:05.872Z,63.50
2022-10-30T17:14:48.382Z,63.70
2022-10-30T17:17:32.473Z,65.70
2022-10-30T17:20:14.110Z,72.00
2022-10-30T17:22:47.625Z,74.30
2022-10-30T17:25:31.792Z,72.60
2022-10-30T17:28:04.247Z,69.60
2022-10-30T17:30:51.963Z,77.30
2022-10-30T17:33:37.977Z,73.20
2022-10-30T17:36:12.517Z,73.70
2022-10-30T17:38:45.828Z,77.50
2022-10-30T17:41:17.736Z,76.90
2022-10-30T17:43:55.898Z,73.60
2022-10-30T17:46:28.833Z,77.90
2022-10-30T17:51:32.791Z,72.50
2022-10-30T17:54:07.540Z,84.40
2022-10-30T17:56:39.342Z,74.90
2022-10-30T17:59:11.153Z,78.00
2022-10-30T18:01:44.371Z,83.60
2022-10-30T18:04:20.660Z,70.90
2022-10-30T18:06:53.039Z,78.00
2022-10-30T18:09:25.399Z,87.50
2022-10-30T18:12:04.999Z,83.20
2022-10-30T18:14:37.647Z,80.50
2022-10-30T18:17:10.300Z,89.60
2022-10-30T18:19:42.069Z,84.20
2022-10-30T18:22:14.164Z,80.20
2022-10-30T18:24:46.344Z,74.40
2022-10-30T18:27:18.669Z,78.30
2022-10-30T18:29:51.448Z,78.90
2022-10-30T18:32:23.389Z,89.00
2022-10-30T18:34:55.245Z,84.10
2022-10-30T18:37:26.976Z,87.70
2022-10-30T18:39:58.993Z,76.10
2022-10-30T18:42:30.876Z,79.70
2022-10-30T18:45:02.784Z,84.50
2022-10-30T18:47:34.796Z,81.60
2022-10-30T18:50:07.189Z,82.90
2022-10-30T18:52:39.549Z,79.60
2022-10-30T18:55:23.838Z,88.10
2022-10-30T18:57:55.595Z,87.00
2022-10-30T19:00:39.781Z,83.80
2022-10-30T19:03:22.017Z,74.80
2022-10-30T19:05:54.376Z,84.30
2022-10-30T19:08:26.099Z,91.00
2022-10-30T19:10:58.619Z,78.60
2022-10-30T19:13:30.746Z,82.10
2022-10-30T19:16:03.344Z,87.50
2022-10-30T19:18:36.903Z,82.00
2022-10-30T19:21:15.752Z,84.80
2022-10-30T19:23:48.065Z,88.80
2022-10-30T19:26:20.282Z,88.60
2022-10-30T19:28:52.769Z,84.20
2022-10-30T19:31:25.071Z,80.80
2022-10-30T19:33:57.380Z,87.50
2022-10-30T19:41:41.464Z,96.90
2022-10-30T19:44:14.417Z,96.20
2022-10-30T19:49:20.209Z,98.80
2022-10-30T19:51:52.252Z,117.20
2022-10-30T19:54:24.694Z,123.40
2022-10-30T19:56:56.732Z,114.60
2022-10-30T19:59:28.629Z,117.20
2022-10-30T20:02:00.544Z,115.70
2022-10-30T20:04:32.540Z,114.60
2022-10-30T20:07:04.780Z,107.60
2022-10-30T20:09:36.741Z,108.00
2022-10-30T20:12:09.238Z,104.40
2022-10-30T20:14:41.937Z,101.50
2022-10-30T20:19:45.787Z,101.70
2022-10-30T20:22:18.036Z,107.70
2022-10-30T20:24:49.912Z,106.40
2022-10-30T20:27:21.748Z,105.70
2022-10-30T20:29:54.455Z,104.70
2022-10-30T20:32:27.330Z,93.60
2022-10-30T20:34:59.233Z,114.00
2022-10-30T20:37:31.122Z,99.70
2022-10-30T20:40:03.187Z,90.20
2022-10-30T20:42:37.290Z,94.30
2022-10-30T20:45:18.182Z,103.80
2022-10-30T20:47:50.106Z,99.20
2022-10-30T20:50:23.618Z,108.20
2022-10-30T20:52:56.315Z,100.70
2022-10-30T20:57:58.980Z,103.80
2022-10-30T21:00:31.822Z,95.40
2022-10-30T21:03:05.771Z,94.00
2022-10-30T21:05:43.680Z,108.70
2022-10-30T21:08:16.888Z,88.00
2022-10-30T21:10:59.136Z,95.60
2022-10-30T21:13:32.044Z,91.60
2022-10-30T21:16:06.441Z,88.40
2022-10-30T21:18:38.583Z,92.70
2022-10-30T21:21:13.460Z,91.90
2022-10-30T21:23:45.255Z,96.60
2022-10-30T21:26:17.105Z,69.70
2022-10-30T21:28:50.322Z,102.90
2022-10-30T21:31:22.645Z,92.50
2022-10-30T21:33:54.587Z,104.30
2022-10-30T21:36:26.312Z,110.60
2022-10-30T21:39:00.676Z,101.30
2022-10-30T21:41:32.924Z,103.90
2022-10-30T21:44:05.306Z,111.60
2022-10-30T21:46:38.341Z,113.90
2022-10-30T21:49:12.785Z,110.00
2022-10-30T21:51:45.706Z,109.30
2022-10-30T21:54:19.615Z,100.40
2022-10-30T21:56:51.533Z,109.60
2022-10-30T21:59:24.199Z,123.30
2022-10-30T22:01:56.382Z,116.90
2022-10-30T22:04:29.543Z,113.30
2022-10-30T22:07:02.147Z,116.70
2022-10-30T22:09:33.821Z,112.40
2022-10-30T22:12:05.998Z,109.30
2022-10-30T22:14:37.878Z,119.60
2022-10-30T22:17:33.833Z,120.30
2022-10-30T22:20:10.011Z,106.10
2022-10-30T22:22:43.115Z,111.40
2022-10-30T22:25:16.072Z,112.50
2022-10-30T22:27:49.943Z,100.80
2022-10-30T22:30:22.904Z,103.50
2022-10-30T22:32:56.211Z,105.50
2022-10-30T22:35:29.215Z,102.80
2022-10-30T22:38:01.650Z,101.80
2022-10-30T22:40:33.462Z,105.80
2022-10-30T22:43:05.277Z,104.70
2022-10-30T22:45:37.061Z,97.30
2022-10-30T22:48:09.394Z,87.60
2022-10-30T22:50:41.171Z,91.20
2022-10-30T22:53:13.285Z,92.00
2022-10-30T22:55:45.054Z,95.70
2022-10-30T23:00:51.072Z,93.20
2022-10-30T23:03:23.633Z,91.50
2022-10-30T23:05:59.756Z,92.40
2022-10-30T23:08:31.982Z,89.80
2022-10-30T23:11:03.753Z,81.20
2022-10-30T23:13:36.191Z,90.90
2022-10-30T23:16:09.757Z,80.00
2022-10-30T23:18:41.939Z,80.10
2022-10-30T23:21:17.442Z,81.60
2022-10-30T23:23:49.765Z,84.20
2022-10-30T23:26:23.486Z,80.10
2022-10-30T23:28:56.847Z,81.90
2022-10-30T23:31:31.078Z,90.30
2022-10-30T23:34:06.077Z,84.50
2022-10-30T23:36:38.362Z,88.10
2022-10-30T23:39:12.486Z,90.30
2022-10-30T23:41:44.657Z,95.10
2022-10-30T23:44:17.716Z,90.80
2022-10-30T23:46:49.815Z,84.80
2022-10-30T23:49:21.517Z,84.50
2022-10-30T23:51:53.198Z,86.40
2022-10-30T23:54:24.846Z,81.30
2022-10-30T23:56:56.515Z,83.50
2022-10-30T23:59:28.249Z,82.90
